sensor_id;sensor_type;location;lat;lon;timestamp;P1;durP1;ratioP1;P2;durP2;ratioP2
45103;SDS011;30865;51.288;4.572;2023-07-24T00:02:13;10.57;;;5.00;;
45103;SDS011;30865;51.288;4.572;2023-07-24T00:04:39;8.10;;;4.88;;
45103;SDS011;30865;51.288;4.572;2023-07-24T00:07:05;8.50;;;4.00;;
45103;SDS011;30865;51.288;4.572;2023-07-24T00:09:30;10.82;;;5.75;;
45103;SDS011;30865;51.288;4.572;2023-07-24T00:11:56;11.80;;;4.28;;
45103;SDS011;30865;51.288;4.572;2023-07-24T00:14:21;8.55;;;4.72;;
45103;SDS011;30865;51.288;4.572;2023-07-24T00:16:47;8.68;;;5.10;;
45103;SDS011;30865;51.288;4.572;2023-07-24T00:19:12;11.55;;;5.47;;
45103;SDS011;30865;51.288;4.572;2023-07-24T00:21:38;11.05;;;5.10;;
45103;SDS011;30865;51.288;4.572;2023-07-24T00:24:03;8.65;;;4.40;;
45103;SDS011;30865;51.288;4.572;2023-07-24T00:26:29;8.02;;;4.75;;
45103;SDS011;30865;51.288;4.572;2023-07-24T00:28:55;10.48;;;4.57;;
45103;SDS011;30865;51.288;4.572;2023-07-24T00:31:20;8.65;;;4.22;;
45103;SDS011;30865;51.288;4.572;2023-07-24T00:33:45;8.48;;;4.05;;
45103;SDS011;30865;51.288;4.572;2023-07-24T00:36:11;9.50;;;4.40;;
45103;SDS011;30865;51.288;4.572;2023-07-24T00:38:36;11.23;;;4.32;;
45103;SDS011;30865;51.288;4.572;2023-07-24T00:41:02;9.60;;;4.50;;
45103;SDS011;30865;51.288;4.572;2023-07-24T00:43:27;9.65;;;4.22;;
45103;SDS011;30865;51.288;4.572;2023-07-24T00:45:53;10.00;;;4.53;;
45103;SDS011;30865;51.288;4.572;2023-07-24T00:48:20;8.43;;;4.55;;
45103;SDS011;30865;51.288;4.572;2023-07-24T00:50:46;9.13;;;4.45;;
45103;SDS011;30865;51.288;4.572;2023-07-24T00:53:12;9.75;;;4.63;;
45103;SDS011;30865;51.288;4.572;2023-07-24T00:55:39;7.93;;;4.47;;
45103;SDS011;30865;51.288;4.572;2023-07-24T00:58:05;8.30;;;4.40;;
45103;SDS011;30865;51.288;4.572;2023-07-24T01:00:31;7.95;;;3.70;;
45103;SDS011;30865;51.288;4.572;2023-07-24T01:02:56;9.73;;;4.53;;
45103;SDS011;30865;51.288;4.572;2023-07-24T01:05:24;6.95;;;4.32;;
45103;SDS011;30865;51.288;4.572;2023-07-24T01:07:50;11.50;;;4.68;;
45103;SDS011;30865;51.288;4.572;2023-07-24T01:10:19;8.15;;;4.47;;
45103;SDS011;30865;51.288;4.572;2023-07-24T01:15:16;9.40;;;4.70;;
45103;SDS011;30865;51.288;4.572;2023-07-24T01:17:50;12.13;;;5.50;;
45103;SDS011;30865;51.288;4.572;2023-07-24T01:20:21;10.77;;;5.00;;
45103;SDS011;30865;51.288;4.572;2023-07-24T01:23:29;7.97;;;4.40;;
45103;SDS011;30865;51.288;4.572;2023-07-24T01:25:56;8.13;;;4.10;;
45103;SDS011;30865;51.288;4.572;2023-07-24T01:28:23;9.52;;;4.85;;
45103;SDS011;30865;51.288;4.572;2023-07-24T01:30:49;10.95;;;4.63;;
45103;SDS011;30865;51.288;4.572;2023-07-24T01:33:16;10.02;;;4.70;;
45103;SDS011;30865;51.288;4.572;2023-07-24T01:35:42;10.90;;;4.90;;
45103;SDS011;30865;51.288;4.572;2023-07-24T01:38:11;8.77;;;4.32;;
45103;SDS011;30865;51.288;4.572;2023-07-24T01:40:41;6.90;;;3.85;;
45103;SDS011;30865;51.288;4.572;2023-07-24T01:43:07;9.05;;;4.80;;
45103;SDS011;30865;51.288;4.572;2023-07-24T01:45:34;8.32;;;4.25;;
45103;SDS011;30865;51.288;4.572;2023-07-24T01:48:00;8.13;;;4.75;;
45103;SDS011;30865;51.288;4.572;2023-07-24T01:50:27;8.00;;;3.78;;
45103;SDS011;30865;51.288;4.572;2023-07-24T01:52:53;8.48;;;4.32;;
45103;SDS011;30865;51.288;4.572;2023-07-24T01:55:18;9.98;;;4.28;;
45103;SDS011;30865;51.288;4.572;2023-07-24T01:57:44;10.50;;;4.50;;
45103;SDS011;30865;51.288;4.572;2023-07-24T02:00:09;8.85;;;4.22;;
45103;SDS011;30865;51.288;4.572;2023-07-24T02:02:35;8.50;;;4.63;;
45103;SDS011;30865;51.288;4.572;2023-07-24T02:05:01;10.88;;;4.50;;
45103;SDS011;30865;51.288;4.572;2023-07-24T02:07:26;9.65;;;4.47;;
45103;SDS011;30865;51.288;4.572;2023-07-24T02:09:52;10.50;;;4.57;;
45103;SDS011;30865;51.288;4.572;2023-07-24T02:12:17;8.18;;;4.40;;
45103;SDS011;30865;51.288;4.572;2023-07-24T02:14:43;9.70;;;4.57;;
45103;SDS011;30865;51.288;4.572;2023-07-24T02:17:08;10.52;;;5.18;;
45103;SDS011;30865;51.288;4.572;2023-07-24T02:19:34;10.10;;;4.85;;
45103;SDS011;30865;51.288;4.572;2023-07-24T02:21:59;10.27;;;4.53;;
45103;SDS011;30865;51.288;4.572;2023-07-24T02:24:24;11.68;;;5.35;;
45103;SDS011;30865;51.288;4.572;2023-07-24T02:26:50;9.57;;;4.72;;
45103;SDS011;30865;51.288;4.572;2023-07-24T02:29:15;10.05;;;4.05;;
45103;SDS011;30865;51.288;4.572;2023-07-24T02:31:41;10.48;;;5.05;;
45103;SDS011;30865;51.288;4.572;2023-07-24T02:34:07;8.18;;;4.55;;
45103;SDS011;30865;51.288;4.572;2023-07-24T02:36:33;13.82;;;4.30;;
45103;SDS011;30865;51.288;4.572;2023-07-24T02:38:58;11.55;;;5.60;;
45103;SDS011;30865;51.288;4.572;2023-07-24T02:41:24;12.02;;;5.05;;
45103;SDS011;30865;51.288;4.572;2023-07-24T02:43:49;10.90;;;4.95;;
45103;SDS011;30865;51.288;4.572;2023-07-24T02:46:14;11.52;;;4.75;;
45103;SDS011;30865;51.288;4.572;2023-07-24T02:48:40;7.47;;;4.63;;
45103;SDS011;30865;51.288;4.572;2023-07-24T02:51:05;10.57;;;4.65;;
45103;SDS011;30865;51.288;4.572;2023-07-24T02:53:31;10.60;;;5.25;;
45103;SDS011;30865;51.288;4.572;2023-07-24T02:55:56;7.78;;;4.63;;
45103;SDS011;30865;51.288;4.572;2023-07-24T02:58:22;12.43;;;4.88;;
45103;SDS011;30865;51.288;4.572;2023-07-24T03:00:47;8.93;;;4.53;;
45103;SDS011;30865;51.288;4.572;2023-07-24T03:03:13;15.85;;;4.35;;
45103;SDS011;30865;51.288;4.572;2023-07-24T03:05:38;8.02;;;3.97;;
45103;SDS011;30865;51.288;4.572;2023-07-24T03:08:04;9.50;;;4.38;;
45103;SDS011;30865;51.288;4.572;2023-07-24T03:10:29;8.55;;;4.47;;
45103;SDS011;30865;51.288;4.572;2023-07-24T03:12:55;11.18;;;4.68;;
45103;SDS011;30865;51.288;4.572;2023-07-24T03:15:20;9.50;;;4.75;;
45103;SDS011;30865;51.288;4.572;2023-07-24T03:17:46;9.63;;;4.90;;
45103;SDS011;30865;51.288;4.572;2023-07-24T03:20:15;10.43;;;4.60;;
45103;SDS011;30865;51.288;4.572;2023-07-24T03:22:42;9.10;;;4.97;;
45103;SDS011;30865;51.288;4.572;2023-07-24T03:25:08;7.90;;;4.65;;
45103;SDS011;30865;51.288;4.572;2023-07-24T03:27:34;8.75;;;4.10;;
45103;SDS011;30865;51.288;4.572;2023-07-24T03:29:59;9.45;;;4.68;;
45103;SDS011;30865;51.288;4.572;2023-07-24T03:32:25;15.57;;;5.35;;
45103;SDS011;30865;51.288;4.572;2023-07-24T03:34:51;14.25;;;4.88;;
45103;SDS011;30865;51.288;4.572;2023-07-24T03:37:16;9.60;;;5.03;;
45103;SDS011;30865;51.288;4.572;2023-07-24T03:39:42;8.93;;;4.43;;
45103;SDS011;30865;51.288;4.572;2023-07-24T03:42:09;9.02;;;4.40;;
45103;SDS011;30865;51.288;4.572;2023-07-24T03:44:37;8.07;;;4.32;;
45103;SDS011;30865;51.288;4.572;2023-07-24T03:47:06;8.48;;;4.18;;
45103;SDS011;30865;51.288;4.572;2023-07-24T03:49:32;9.73;;;5.13;;
45103;SDS011;30865;51.288;4.572;2023-07-24T03:51:57;12.52;;;5.30;;
45103;SDS011;30865;51.288;4.572;2023-07-24T03:54:23;13.82;;;5.80;;
45103;SDS011;30865;51.288;4.572;2023-07-24T03:56:48;10.55;;;5.55;;
45103;SDS011;30865;51.288;4.572;2023-07-24T03:59:14;10.90;;;5.10;;
45103;SDS011;30865;51.288;4.572;2023-07-24T04:01:39;14.35;;;5.40;;
45103;SDS011;30865;51.288;4.572;2023-07-24T04:04:05;10.13;;;5.07;;
45103;SDS011;30865;51.288;4.572;2023-07-24T04:06:30;12.20;;;5.13;;
45103;SDS011;30865;51.288;4.572;2023-07-24T04:08:56;12.45;;;4.80;;
45103;SDS011;30865;51.288;4.572;2023-07-24T04:11:21;11.38;;;4.70;;
45103;SDS011;30865;51.288;4.572;2023-07-24T04:13:46;10.45;;;4.65;;
45103;SDS011;30865;51.288;4.572;2023-07-24T04:16:12;10.05;;;4.75;;
45103;SDS011;30865;51.288;4.572;2023-07-24T04:18:37;11.82;;;4.75;;
45103;SDS011;30865;51.288;4.572;2023-07-24T04:21:03;12.27;;;5.07;;
45103;SDS011;30865;51.288;4.572;2023-07-24T04:23:28;11.85;;;4.50;;
45103;SDS011;30865;51.288;4.572;2023-07-24T04:25:54;11.43;;;4.70;;
45103;SDS011;30865;51.288;4.572;2023-07-24T04:28:19;9.68;;;4.70;;
45103;SDS011;30865;51.288;4.572;2023-07-24T04:30:45;9.45;;;4.72;;
45103;SDS011;30865;51.288;4.572;2023-07-24T04:33:10;10.57;;;4.85;;
45103;SDS011;30865;51.288;4.572;2023-07-24T04:35:36;10.98;;;5.00;;
45103;SDS011;30865;51.288;4.572;2023-07-24T04:38:01;9.90;;;4.22;;
45103;SDS011;30865;51.288;4.572;2023-07-24T04:40:27;8.57;;;4.70;;
45103;SDS011;30865;51.288;4.572;2023-07-24T04:42:52;10.20;;;4.60;;
45103;SDS011;30865;51.288;4.572;2023-07-24T04:45:18;11.25;;;5.65;;
45103;SDS011;30865;51.288;4.572;2023-07-24T04:47:43;12.68;;;5.40;;
45103;SDS011;30865;51.288;4.572;2023-07-24T04:50:09;14.82;;;5.70;;
45103;SDS011;30865;51.288;4.572;2023-07-24T04:52:35;10.85;;;5.40;;
45103;SDS011;30865;51.288;4.572;2023-07-24T04:55:00;13.10;;;6.78;;
45103;SDS011;30865;51.288;4.572;2023-07-24T04:57:25;11.65;;;6.60;;
45103;SDS011;30865;51.288;4.572;2023-07-24T04:59:51;18.83;;;6.40;;
45103;SDS011;30865;51.288;4.572;2023-07-24T05:02:16;10.45;;;6.00;;
45103;SDS011;30865;51.288;4.572;2023-07-24T05:04:42;12.70;;;4.95;;
45103;SDS011;30865;51.288;4.572;2023-07-24T05:07:07;15.38;;;5.63;;
45103;SDS011;30865;51.288;4.572;2023-07-24T05:09:33;12.48;;;4.93;;
45103;SDS011;30865;51.288;4.572;2023-07-24T05:11:58;10.55;;;5.22;;
45103;SDS011;30865;51.288;4.572;2023-07-24T05:14:24;11.73;;;5.90;;
45103;SDS011;30865;51.288;4.572;2023-07-24T05:16:49;9.15;;;4.93;;
45103;SDS011;30865;51.288;4.572;2023-07-24T05:19:15;17.23;;;5.82;;
45103;SDS011;30865;51.288;4.572;2023-07-24T05:21:40;12.95;;;6.22;;
45103;SDS011;30865;51.288;4.572;2023-07-24T05:24:06;18.00;;;5.43;;
45103;SDS011;30865;51.288;4.572;2023-07-24T05:26:31;14.10;;;6.10;;
45103;SDS011;30865;51.288;4.572;2023-07-24T05:28:57;16.02;;;5.93;;
45103;SDS011;30865;51.288;4.572;2023-07-24T05:31:22;13.68;;;5.35;;
45103;SDS011;30865;51.288;4.572;2023-07-24T05:33:48;13.00;;;6.70;;
45103;SDS011;30865;51.288;4.572;2023-07-24T05:36:13;10.30;;;4.95;;
45103;SDS011;30865;51.288;4.572;2023-07-24T05:38:39;12.30;;;5.45;;
45103;SDS011;30865;51.288;4.572;2023-07-24T05:41:04;14.85;;;5.68;;
45103;SDS011;30865;51.288;4.572;2023-07-24T05:43:30;13.32;;;5.40;;
45103;SDS011;30865;51.288;4.572;2023-07-24T05:45:57;10.80;;;5.70;;
45103;SDS011;30865;51.288;4.572;2023-07-24T05:48:23;13.10;;;5.38;;
45103;SDS011;30865;51.288;4.572;2023-07-24T05:50:49;10.90;;;4.50;;
45103;SDS011;30865;51.288;4.572;2023-07-24T05:53:15;13.32;;;5.00;;
45103;SDS011;30865;51.288;4.572;2023-07-24T05:55:41;13.27;;;5.25;;
45103;SDS011;30865;51.288;4.572;2023-07-24T05:58:07;12.43;;;5.35;;
45103;SDS011;30865;51.288;4.572;2023-07-24T06:00:33;8.18;;;4.53;;
45103;SDS011;30865;51.288;4.572;2023-07-24T06:02:59;14.30;;;4.88;;
45103;SDS011;30865;51.288;4.572;2023-07-24T06:05:24;20.00;;;4.97;;
45103;SDS011;30865;51.288;4.572;2023-07-24T06:07:50;12.93;;;5.32;;
45103;SDS011;30865;51.288;4.572;2023-07-24T06:10:15;9.85;;;5.22;;
45103;SDS011;30865;51.288;4.572;2023-07-24T06:12:41;9.55;;;4.30;;
45103;SDS011;30865;51.288;4.572;2023-07-24T06:15:07;12.35;;;4.20;;
45103;SDS011;30865;51.288;4.572;2023-07-24T06:17:32;9.73;;;4.63;;
45103;SDS011;30865;51.288;4.572;2023-07-24T06:19:58;14.13;;;4.95;;
45103;SDS011;30865;51.288;4.572;2023-07-24T06:22:23;9.23;;;4.38;;
45103;SDS011;30865;51.288;4.572;2023-07-24T06:24:49;10.02;;;4.25;;
45103;SDS011;30865;51.288;4.572;2023-07-24T06:27:15;13.88;;;5.10;;
45103;SDS011;30865;51.288;4.572;2023-07-24T06:29:41;11.20;;;5.13;;
45103;SDS011;30865;51.288;4.572;2023-07-24T06:32:06;8.32;;;5.13;;
45103;SDS011;30865;51.288;4.572;2023-07-24T06:34:32;9.43;;;4.90;;
45103;SDS011;30865;51.288;4.572;2023-07-24T06:36:58;11.25;;;4.75;;
45103;SDS011;30865;51.288;4.572;2023-07-24T06:39:24;8.77;;;4.53;;
45103;SDS011;30865;51.288;4.572;2023-07-24T06:41:51;10.40;;;4.50;;
45103;SDS011;30865;51.288;4.572;2023-07-24T06:44:17;10.60;;;4.70;;
45103;SDS011;30865;51.288;4.572;2023-07-24T06:46:42;13.52;;;5.30;;
45103;SDS011;30865;51.288;4.572;2023-07-24T06:49:08;9.55;;;4.80;;
45103;SDS011;30865;51.288;4.572;2023-07-24T06:51:35;11.23;;;5.13;;
45103;SDS011;30865;51.288;4.572;2023-07-24T06:54:00;9.57;;;4.95;;
45103;SDS011;30865;51.288;4.572;2023-07-24T06:56:26;12.57;;;5.63;;
45103;SDS011;30865;51.288;4.572;2023-07-24T06:58:51;13.63;;;5.13;;
45103;SDS011;30865;51.288;4.572;2023-07-24T07:01:17;14.57;;;5.88;;
45103;SDS011;30865;51.288;4.572;2023-07-24T07:03:42;23.70;;;6.75;;
45103;SDS011;30865;51.288;4.572;2023-07-24T07:06:07;9.63;;;5.22;;
45103;SDS011;30865;51.288;4.572;2023-07-24T07:08:34;10.48;;;5.35;;
45103;SDS011;30865;51.288;4.572;2023-07-24T07:11:00;10.85;;;5.25;;
45103;SDS011;30865;51.288;4.572;2023-07-24T07:13:26;14.48;;;5.57;;
45103;SDS011;30865;51.288;4.572;2023-07-24T07:15:52;9.25;;;5.00;;
45103;SDS011;30865;51.288;4.572;2023-07-24T07:18:17;14.43;;;5.45;;
45103;SDS011;30865;51.288;4.572;2023-07-24T07:20:46;9.15;;;5.13;;
45103;SDS011;30865;51.288;4.572;2023-07-24T07:23:15;8.35;;;5.18;;
45103;SDS011;30865;51.288;4.572;2023-07-24T07:25:41;13.75;;;5.72;;
45103;SDS011;30865;51.288;4.572;2023-07-24T07:28:16;15.88;;;6.75;;
45103;SDS011;30865;51.288;4.572;2023-07-24T07:30:42;11.48;;;6.38;;
45103;SDS011;30865;51.288;4.572;2023-07-24T07:33:08;12.88;;;5.97;;
45103;SDS011;30865;51.288;4.572;2023-07-24T07:35:34;20.10;;;6.13;;
45103;SDS011;30865;51.288;4.572;2023-07-24T07:38:00;15.23;;;6.53;;
45103;SDS011;30865;51.288;4.572;2023-07-24T07:40:27;12.35;;;6.35;;
45103;SDS011;30865;51.288;4.572;2023-07-24T07:42:52;19.15;;;6.22;;
45103;SDS011;30865;51.288;4.572;2023-07-24T07:45:18;20.60;;;6.15;;
45103;SDS011;30865;51.288;4.572;2023-07-24T07:47:44;15.18;;;5.55;;
45103;SDS011;30865;51.288;4.572;2023-07-24T07:50:10;9.68;;;5.80;;
45103;SDS011;30865;51.288;4.572;2023-07-24T07:52:36;15.23;;;6.93;;
45103;SDS011;30865;51.288;4.572;2023-07-24T07:55:01;12.00;;;6.15;;
45103;SDS011;30865;51.288;4.572;2023-07-24T07:57:27;11.32;;;5.15;;
45103;SDS011;30865;51.288;4.572;2023-07-24T07:59:52;22.50;;;6.50;;
45103;SDS011;30865;51.288;4.572;2023-07-24T08:02:18;11.73;;;5.63;;
45103;SDS011;30865;51.288;4.572;2023-07-24T08:04:46;12.85;;;6.28;;
45103;SDS011;30865;51.288;4.572;2023-07-24T08:07:12;19.80;;;6.72;;
45103;SDS011;30865;51.288;4.572;2023-07-24T08:09:37;9.40;;;5.03;;
45103;SDS011;30865;51.288;4.572;2023-07-24T08:12:03;11.43;;;5.07;;
45103;SDS011;30865;51.288;4.572;2023-07-24T08:14:29;14.30;;;5.85;;
45103;SDS011;30865;51.288;4.572;2023-07-24T08:16:55;13.27;;;4.53;;
45103;SDS011;30865;51.288;4.572;2023-07-24T08:19:20;18.33;;;5.65;;
45103;SDS011;30865;51.288;4.572;2023-07-24T08:21:46;11.40;;;5.13;;
45103;SDS011;30865;51.288;4.572;2023-07-24T08:24:12;13.30;;;5.13;;
45103;SDS011;30865;51.288;4.572;2023-07-24T08:26:37;10.38;;;6.15;;
45103;SDS011;30865;51.288;4.572;2023-07-24T08:29:03;9.27;;;4.97;;
45103;SDS011;30865;51.288;4.572;2023-07-24T08:31:30;12.35;;;5.82;;
45103;SDS011;30865;51.288;4.572;2023-07-24T08:33:55;12.68;;;5.78;;
45103;SDS011;30865;51.288;4.572;2023-07-24T08:36:21;13.80;;;4.95;;
45103;SDS011;30865;51.288;4.572;2023-07-24T08:38:46;11.73;;;5.75;;
45103;SDS011;30865;51.288;4.572;2023-07-24T08:41:13;10.00;;;5.25;;
45103;SDS011;30865;51.288;4.572;2023-07-24T08:43:40;8.95;;;4.60;;
45103;SDS011;30865;51.288;4.572;2023-07-24T08:46:07;11.52;;;7.80;;
45103;SDS011;30865;51.288;4.572;2023-07-24T08:48:34;12.00;;;5.38;;
45103;SDS011;30865;51.288;4.572;2023-07-24T08:51:13;10.05;;;5.35;;
45103;SDS011;30865;51.288;4.572;2023-07-24T08:53:42;14.90;;;5.85;;
45103;SDS011;30865;51.288;4.572;2023-07-24T08:56:09;11.27;;;6.25;;
45103;SDS011;30865;51.288;4.572;2023-07-24T08:58:37;12.02;;;5.57;;
45103;SDS011;30865;51.288;4.572;2023-07-24T09:01:04;14.65;;;5.70;;
45103;SDS011;30865;51.288;4.572;2023-07-24T09:03:31;9.13;;;5.70;;
45103;SDS011;30865;51.288;4.572;2023-07-24T09:05:57;10.05;;;5.30;;
45103;SDS011;30865;51.288;4.572;2023-07-24T09:08:32;20.08;;;5.30;;
45103;SDS011;30865;51.288;4.572;2023-07-24T09:10:59;13.85;;;6.05;;
45103;SDS011;30865;51.288;4.572;2023-07-24T09:13:26;9.32;;;4.85;;
45103;SDS011;30865;51.288;4.572;2023-07-24T09:15:52;12.00;;;4.53;;
45103;SDS011;30865;51.288;4.572;2023-07-24T09:18:18;8.55;;;4.45;;
45103;SDS011;30865;51.288;4.572;2023-07-24T09:20:45;10.70;;;5.30;;
45103;SDS011;30865;51.288;4.572;2023-07-24T09:23:11;14.02;;;5.65;;
45103;SDS011;30865;51.288;4.572;2023-07-24T09:25:38;9.38;;;5.28;;
45103;SDS011;30865;51.288;4.572;2023-07-24T09:28:08;10.80;;;5.25;;
45103;SDS011;30865;51.288;4.572;2023-07-24T09:30:38;10.15;;;5.03;;
45103;SDS011;30865;51.288;4.572;2023-07-24T09:33:04;12.68;;;5.30;;
45103;SDS011;30865;51.288;4.572;2023-07-24T09:35:29;9.40;;;5.00;;
45103;SDS011;30865;51.288;4.572;2023-07-24T09:38:03;8.95;;;4.15;;
45103;SDS011;30865;51.288;4.572;2023-07-24T09:40:36;14.00;;;4.97;;
45103;SDS011;30865;51.288;4.572;2023-07-24T09:43:03;9.18;;;4.78;;
45103;SDS011;30865;51.288;4.572;2023-07-24T09:45:38;14.80;;;7.78;;
45103;SDS011;30865;51.288;4.572;2023-07-24T09:48:03;7.88;;;3.60;;
45103;SDS011;30865;51.288;4.572;2023-07-24T09:50:31;6.60;;;4.07;;
45103;SDS011;30865;51.288;4.572;2023-07-24T09:52:57;8.15;;;4.05;;
45103;SDS011;30865;51.288;4.572;2023-07-24T09:55:25;11.90;;;4.60;;
45103;SDS011;30865;51.288;4.572;2023-07-24T09:57:58;8.32;;;4.15;;
45103;SDS011;30865;51.288;4.572;2023-07-24T10:00:25;11.73;;;4.38;;
45103;SDS011;30865;51.288;4.572;2023-07-24T10:02:51;8.05;;;4.32;;
45103;SDS011;30865;51.288;4.572;2023-07-24T10:05:17;6.63;;;3.42;;
45103;SDS011;30865;51.288;4.572;2023-07-24T10:07:43;6.90;;;4.15;;
45103;SDS011;30865;51.288;4.572;2023-07-24T10:10:08;7.40;;;3.22;;
45103;SDS011;30865;51.288;4.572;2023-07-24T10:12:34;7.63;;;3.25;;
45103;SDS011;30865;51.288;4.572;2023-07-24T10:15:01;6.43;;;2.97;;
45103;SDS011;30865;51.288;4.572;2023-07-24T10:17:36;6.45;;;3.63;;
45103;SDS011;30865;51.288;4.572;2023-07-24T10:20:04;6.93;;;3.33;;
45103;SDS011;30865;51.288;4.572;2023-07-24T10:22:30;6.68;;;4.03;;
45103;SDS011;30865;51.288;4.572;2023-07-24T10:24:56;8.85;;;4.00;;
45103;SDS011;30865;51.288;4.572;2023-07-24T10:27:25;5.88;;;3.53;;
45103;SDS011;30865;51.288;4.572;2023-07-24T10:30:03;6.35;;;3.72;;
45103;SDS011;30865;51.288;4.572;2023-07-24T10:32:29;11.57;;;4.78;;
45103;SDS011;30865;51.288;4.572;2023-07-24T10:35:08;10.05;;;4.18;;
45103;SDS011;30865;51.288;4.572;2023-07-24T10:37:34;8.55;;;5.07;;
45103;SDS011;30865;51.288;4.572;2023-07-24T10:40:01;8.98;;;4.25;;
45103;SDS011;30865;51.288;4.572;2023-07-24T10:42:28;6.75;;;3.75;;
45103;SDS011;30865;51.288;4.572;2023-07-24T10:45:03;8.68;;;4.90;;
45103;SDS011;30865;51.288;4.572;2023-07-24T10:47:32;9.90;;;4.88;;
45103;SDS011;30865;51.288;4.572;2023-07-24T10:49:59;8.27;;;4.65;;
45103;SDS011;30865;51.288;4.572;2023-07-24T10:52:28;15.65;;;6.13;;
45103;SDS011;30865;51.288;4.572;2023-07-24T10:55:03;11.68;;;6.78;;
45103;SDS011;30865;51.288;4.572;2023-07-24T10:57:29;19.65;;;9.40;;
45103;SDS011;30865;51.288;4.572;2023-07-24T10:59:55;15.48;;;5.63;;
45103;SDS011;30865;51.288;4.572;2023-07-24T11:02:21;15.77;;;5.63;;
45103;SDS011;30865;51.288;4.572;2023-07-24T11:04:46;12.07;;;5.22;;
45103;SDS011;30865;51.288;4.572;2023-07-24T11:07:12;11.40;;;5.85;;
45103;SDS011;30865;51.288;4.572;2023-07-24T11:09:39;9.57;;;5.00;;
45103;SDS011;30865;51.288;4.572;2023-07-24T11:12:09;9.65;;;5.13;;
45103;SDS011;30865;51.288;4.572;2023-07-24T11:14:35;11.25;;;5.22;;
45103;SDS011;30865;51.288;4.572;2023-07-24T11:17:01;8.80;;;5.22;;
45103;SDS011;30865;51.288;4.572;2023-07-24T11:19:26;8.82;;;4.38;;
45103;SDS011;30865;51.288;4.572;2023-07-24T11:21:51;14.88;;;6.05;;
45103;SDS011;30865;51.288;4.572;2023-07-24T11:24:17;8.43;;;5.18;;
45103;SDS011;30865;51.288;4.572;2023-07-24T11:26:43;12.77;;;4.88;;
45103;SDS011;30865;51.288;4.572;2023-07-24T11:29:12;11.30;;;5.40;;
45103;SDS011;30865;51.288;4.572;2023-07-24T11:31:38;10.18;;;5.80;;
45103;SDS011;30865;51.288;4.572;2023-07-24T11:34:04;8.45;;;5.40;;
45103;SDS011;30865;51.288;4.572;2023-07-24T11:36:30;12.50;;;5.53;;
45103;SDS011;30865;51.288;4.572;2023-07-24T11:38:56;10.50;;;4.75;;
45103;SDS011;30865;51.288;4.572;2023-07-24T11:41:21;10.13;;;4.50;;
45103;SDS011;30865;51.288;4.572;2023-07-24T11:43:48;9.13;;;5.03;;
45103;SDS011;30865;51.288;4.572;2023-07-24T11:46:23;10.98;;;4.60;;
45103;SDS011;30865;51.288;4.572;2023-07-24T11:48:50;9.32;;;4.35;;
45103;SDS011;30865;51.288;4.572;2023-07-24T11:51:18;7.63;;;4.22;;
45103;SDS011;30865;51.288;4.572;2023-07-24T11:53:44;7.18;;;4.75;;
45103;SDS011;30865;51.288;4.572;2023-07-24T11:56:13;8.18;;;4.95;;
45103;SDS011;30865;51.288;4.572;2023-07-24T11:58:40;15.00;;;4.88;;
45103;SDS011;30865;51.288;4.572;2023-07-24T12:01:06;8.70;;;4.68;;
45103;SDS011;30865;51.288;4.572;2023-07-24T12:03:31;10.15;;;4.28;;
45103;SDS011;30865;51.288;4.572;2023-07-24T12:05:57;6.93;;;4.40;;
45103;SDS011;30865;51.288;4.572;2023-07-24T12:08:33;10.48;;;5.85;;
45103;SDS011;30865;51.288;4.572;2023-07-24T12:11:00;9.18;;;4.82;;
45103;SDS011;30865;51.288;4.572;2023-07-24T12:13:26;7.82;;;4.25;;
45103;SDS011;30865;51.288;4.572;2023-07-24T12:15:52;7.60;;;4.13;;
45103;SDS011;30865;51.288;4.572;2023-07-24T12:18:17;10.18;;;4.85;;
45103;SDS011;30865;51.288;4.572;2023-07-24T12:20:43;8.43;;;5.35;;
45103;SDS011;30865;51.288;4.572;2023-07-24T12:23:08;10.35;;;4.65;;
45103;SDS011;30865;51.288;4.572;2023-07-24T12:25:34;10.27;;;4.15;;
45103;SDS011;30865;51.288;4.572;2023-07-24T12:28:00;9.68;;;4.60;;
45103;SDS011;30865;51.288;4.572;2023-07-24T12:30:25;10.50;;;5.03;;
45103;SDS011;30865;51.288;4.572;2023-07-24T12:32:51;12.45;;;5.20;;
45103;SDS011;30865;51.288;4.572;2023-07-24T12:35:16;9.23;;;5.10;;
45103;SDS011;30865;51.288;4.572;2023-07-24T12:37:45;6.70;;;4.25;;
45103;SDS011;30865;51.288;4.572;2023-07-24T12:40:11;10.15;;;4.32;;
45103;SDS011;30865;51.288;4.572;2023-07-24T12:42:37;7.10;;;4.00;;
45103;SDS011;30865;51.288;4.572;2023-07-24T12:45:02;12.27;;;3.97;;
45103;SDS011;30865;51.288;4.572;2023-07-24T12:47:28;7.28;;;4.28;;
45103;SDS011;30865;51.288;4.572;2023-07-24T12:49:55;16.05;;;7.53;;
45103;SDS011;30865;51.288;4.572;2023-07-24T12:52:24;14.48;;;5.18;;
45103;SDS011;30865;51.288;4.572;2023-07-24T12:54:50;9.95;;;5.22;;
45103;SDS011;30865;51.288;4.572;2023-07-24T12:57:15;7.28;;;4.00;;
45103;SDS011;30865;51.288;4.572;2023-07-24T12:59:41;5.82;;;3.58;;
45103;SDS011;30865;51.288;4.572;2023-07-24T13:02:06;11.32;;;4.68;;
45103;SDS011;30865;51.288;4.572;2023-07-24T13:04:32;7.15;;;4.20;;
45103;SDS011;30865;51.288;4.572;2023-07-24T13:06:57;6.53;;;3.85;;
45103;SDS011;30865;51.288;4.572;2023-07-24T13:09:25;10.85;;;4.55;;
45103;SDS011;30865;51.288;4.572;2023-07-24T13:11:50;6.65;;;3.83;;
45103;SDS011;30865;51.288;4.572;2023-07-24T13:14:16;6.20;;;3.25;;
45103;SDS011;30865;51.288;4.572;2023-07-24T13:16:43;9.88;;;5.20;;
45103;SDS011;30865;51.288;4.572;2023-07-24T13:19:08;11.85;;;4.35;;
45103;SDS011;30865;51.288;4.572;2023-07-24T13:21:34;7.70;;;5.13;;
45103;SDS011;30865;51.288;4.572;2023-07-24T13:23:59;7.32;;;3.63;;
45103;SDS011;30865;51.288;4.572;2023-07-24T13:26:25;7.97;;;4.00;;
45103;SDS011;30865;51.288;4.572;2023-07-24T13:28:50;10.50;;;4.13;;
45103;SDS011;30865;51.288;4.572;2023-07-24T13:31:16;8.00;;;3.78;;
45103;SDS011;30865;51.288;4.572;2023-07-24T13:33:43;11.55;;;5.00;;
45103;SDS011;30865;51.288;4.572;2023-07-24T13:36:09;11.38;;;4.95;;
45103;SDS011;30865;51.288;4.572;2023-07-24T13:38:35;4.60;;;2.97;;
45103;SDS011;30865;51.288;4.572;2023-07-24T13:41:01;6.05;;;3.08;;
45103;SDS011;30865;51.288;4.572;2023-07-24T13:43:26;7.28;;;3.38;;
45103;SDS011;30865;51.288;4.572;2023-07-24T13:45:52;8.18;;;3.35;;
45103;SDS011;30865;51.288;4.572;2023-07-24T13:48:18;7.05;;;3.10;;
45103;SDS011;30865;51.288;4.572;2023-07-24T13:50:43;4.95;;;2.83;;
45103;SDS011;30865;51.288;4.572;2023-07-24T13:53:09;5.47;;;3.08;;
45103;SDS011;30865;51.288;4.572;2023-07-24T13:55:34;7.10;;;3.08;;
45103;SDS011;30865;51.288;4.572;2023-07-24T13:58:00;9.68;;;3.33;;
45103;SDS011;30865;51.288;4.572;2023-07-24T14:00:26;6.25;;;3.53;;
45103;SDS011;30865;51.288;4.572;2023-07-24T14:02:51;10.63;;;3.20;;
45103;SDS011;30865;51.288;4.572;2023-07-24T14:05:17;8.05;;;3.53;;
45103;SDS011;30865;51.288;4.572;2023-07-24T14:07:42;5.03;;;2.90;;
45103;SDS011;30865;51.288;4.572;2023-07-24T14:10:09;6.53;;;3.30;;
45103;SDS011;30865;51.288;4.572;2023-07-24T14:12:35;12.10;;;3.55;;
45103;SDS011;30865;51.288;4.572;2023-07-24T14:15:00;5.45;;;3.25;;
45103;SDS011;30865;51.288;4.572;2023-07-24T14:17:26;6.53;;;2.95;;
45103;SDS011;30865;51.288;4.572;2023-07-24T14:19:52;4.90;;;3.20;;
45103;SDS011;30865;51.288;4.572;2023-07-24T14:22:18;12.13;;;2.85;;
45103;SDS011;30865;51.288;4.572;2023-07-24T14:24:43;7.93;;;5.15;;
45103;SDS011;30865;51.288;4.572;2023-07-24T14:27:09;8.35;;;3.55;;
45103;SDS011;30865;51.288;4.572;2023-07-24T14:29:34;5.50;;;3.40;;
45103;SDS011;30865;51.288;4.572;2023-07-24T14:32:05;4.88;;;2.80;;
45103;SDS011;30865;51.288;4.572;2023-07-24T14:34:31;4.13;;;2.42;;
45103;SDS011;30865;51.288;4.572;2023-07-24T14:36:57;4.70;;;1.95;;
45103;SDS011;30865;51.288;4.572;2023-07-24T14:39:22;3.97;;;2.35;;